Terminal Aerodrome Forecast
Issued by NWS Pueblo, CO

Home | Current Version | Previous Version | Text Only | Print | Product List | Glossary On
Versions: 1 2 3 4 5 6 7 8 9 10 11 12 13 14 15 16 17
000
FTUS45 KPUB 240520
TAFALS
TAF
KALS 240520Z 2406/2506 VRB06KT P6SM FEW140 SCT200
     FM241600 16008KT P6SM FEW100 SCT200
     FM242200 21012KT P6SM VCTS SCT080CB BKN140
     FM250300 VRB06KT P6SM SCT080 BKN140=

USA.gov is the U.S. government's official web portal to all federal, state and local government web resources and services.